Terminal Aerodrome Forecast
Issued by NWS

Home | Current Version | Previous Version | Text Only | Print | Product List | Glossary On
Versions: 1 2 3 4 5 6 7 8 9 10 11 12 13 14 15 16 17 18 19
000
FTUS43 KJKL 211100
TAFSME
TAF
KSME 211137Z 2112/2212 VRB03KT P6SM BKN250
     FM211600 25006KT P6SM VCTS BKN040CB
     FM220400 VRB03KT 4SM BR SCT250=

USA.gov is the U.S. government's official web portal to all federal, state and local government web resources and services.